Terminal Aerodrome Forecast
Issued by NWS

Home | Current Version | Previous Version | Text Only | Print | Product List | Glossary On
Versions: 1 2 3 4 5 6 7 8 9 10 11 12 13 14 15 16 17 18 19 20 21 22 23 24 25 26 27
547
FTUS42 KCAE 221154 AAA
TAFOGB
TAF AMD
KOGB 221154Z 2212/2312 00000KT P6SM SCT250
      TEMPO 2212/2213 4SM BR
     FM221400 14005KT P6SM BKN030
     FM222100 17006KT P6SM VCSH SCT015 OVC030
     FM230100 17010KT 4SM -SHRA OVC012=

USA.gov is the U.S. government's official web portal to all federal, state and local government web resources and services.